• Join FlightAware (Why Join?)
  • Login
  • US Flag 
04:36AM EDT


 

Airport Tracker/Info


-or-


 

Live Flight TrackerFlight Track Log ✈ BJS542 ✈ 05-May-2013 ✈ KBED - KMIA

Flight Track Log - Related Links

Times and Time Zones

All times are in EDT time to prevent confusion due to time zone crossing. See the BJS542 flight status page for this flight to view local times or setup timezone preferences in your user account.

Time Position Orientation Groundspeed Altitude Reporting Facility
EDT Latitude Longitude Course Direction KTS MPH feet Rate Location/Type
06:36PM 42.4500 -71.2500 144° Southeast 191 220 2,000  Level KA90
06:37PM 42.3833 -71.2833 200° South 268 308 5,500 3,540 Climbing KA90
06:38PM 42.3167 -71.2500 160° South 290 334 9,100 2,640 Climbing KA90
06:39PM 42.2031 -71.1172 139° Southeast 371 427 12,700 1,800 Climbing Boston Center
06:40PM 42.1272 -71.0433 144° Southeast 371 427 14,100 2,340 Climbing Boston Center
06:42PM 42.0258 -70.9392 143° Southeast 377 434 17,900 3,240 Climbing Boston Center
06:43PM 41.9350 -70.8494 144° Southeast 372 428 21,300 3,000 Climbing Boston Center
06:44PM 41.8442 -70.7708 147° Southeast 377 434 23,900 2,460 Climbing Boston Center
06:45PM 41.7447 -70.8097 196° South 370 426 26,300 2,220 Climbing Boston Center
06:46PM 41.6439 -70.8983 213° Southwest 361 415 28,400 1,800 Climbing Boston Center
06:47PM 41.5447 -70.9811 212° Southwest 397 457 29,900 1,560 Climbing Boston Center
06:48PM 41.4631 -71.1050 229° Southwest 430 495 31,600 1,620 Climbing Boston Center
06:49PM 41.3853 -71.2367 232° Southwest 436 502 33,200 1,560 Climbing Boston Center
06:50PM 41.2869 -71.3958 231° Southwest 462 532 35,100 1,680 Climbing Boston Center
06:51PM 41.2067 -71.5297 231° Southwest 468 539 37,000 1,620 Climbing Boston Center
06:52PM 41.1450 -71.6408 234° Southwest 461 531 38,400 1,320 Climbing Boston Center
06:53PM 41.0961 -71.7900 247° West 442 509 39,700 1,200 Climbing Boston Center
06:55PM 40.9431 -72.0692 234° Southwest 447 514 42,000 1,080 Climbing Boston Center
06:56PM 40.8581 -72.1794 224° Southwest 447 514 43,000 480 Climbing Boston Center
06:57PM 40.7686 -72.2867 222° Southwest 440 506 43,000  Level Boston Center
06:58PM 40.6769 -72.3936 222° Southwest 440 506 43,000  Level Boston Center
06:59PM 40.5914 -72.5056 225° Southwest 440 506 43,000  Level Boston Center
07:01PM 40.4562 -72.7121 229° Southwest  Level FlightAware Approximate
07:02PM 40.3219 -72.8292 229° Southwest 445 512 43,000  Level Boston Center
07:03PM 40.2319 -72.9375 223° Southwest 445 512 43,000  Level Boston Center
07:04PM 40.1439 -73.0536 225° Southwest 445 512 43,000  Level Boston Center
07:06PM 39.9517 -73.2883 223° Southwest 456 525 43,000  Level Washington Center
07:07PM 39.8600 -73.3967 222° Southwest 456 525 43,000  Level Washington Center
07:08PM 39.7658 -73.4942 219° Southwest 450 518 43,000 -60 Level Washington Center
07:09PM 39.6592 -73.5833 213° Southwest 450 518 42,900  Descending Washington Center
07:10PM 39.5564 -73.6697 213° Southwest 455 524 43,000  Climbing Washington Center
07:11PM 39.4514 -73.7558 212° Southwest 455 524 43,000  Level Washington Center
07:12PM 39.3567 -73.8336 212° Southwest 450 518 43,000  Level Washington Center
07:13PM 39.2517 -73.9164 211° Southwest 450 518 43,000  Level Washington Center
07:14PM 39.1467 -74.0072 214° Southwest 455 524 43,000  Level Washington Center
07:15PM 39.0392 -74.0897 211° Southwest 449 517 43,000  Level Washington Center
07:16PM 38.9319 -74.1800 213° Southwest 449 517 43,000  Level Washington Center
07:17PM 38.8286 -74.2592 211° Southwest 449 517 43,000  Level Washington Center
07:18PM 38.7211 -74.3464 212° Southwest 454 522 43,000  Level Washington Center
07:19PM 38.6158 -74.4306 212° Southwest 454 522 43,000  Level Washington Center
07:20PM 38.5103 -74.5144 212° Southwest 449 517 43,000  Level Washington Center
07:21PM 38.4067 -74.5981 212° Southwest 449 517 43,000  Level Washington Center
07:22PM 38.3008 -74.6842 213° Southwest 449 517 43,000  Level Washington Center
07:23PM 38.1972 -74.7622 211° Southwest 449 517 43,000  Level Washington Center
07:24PM 38.0875 -74.8531 213° Southwest 443 510 43,000  Level Washington Center
07:25PM 37.9836 -74.9358 212° Southwest 443 510 43,000  Level Washington Center
07:26PM 37.8797 -75.0103 209° Southwest 443 510 43,000  Level Washington Center
07:27PM 37.7778 -75.0900 212° Southwest 438 504 43,000  Level Washington Center
07:28PM 37.6803 -75.1667 212° Southwest 428 493 43,000  Level Washington Center
07:29PM 37.5803 -75.2433 211° Southwest 428 493 43,000  Level Washington Center
07:30PM 37.4803 -75.3197 211° Southwest 428 493 43,000  Level Washington Center
07:31PM 37.3803 -75.3958 211° Southwest 428 493 43,000  Level Washington Center
07:32PM 37.2783 -75.4744 212° Southwest 428 493 43,000  Level Washington Center
07:33PM 37.1742 -75.5528 211° Southwest 428 493 43,000  Level Washington Center
07:34PM 37.0697 -75.6308 211° Southwest 433 498 43,000  Level Washington Center
07:35PM 36.9656 -75.7089 211° Southwest 433 498 43,000  Level Washington Center
07:36PM 36.8547 -75.7736 205° Southwest 433 498 43,000  Level Washington Center
07:37PM 36.7400 -75.8356 203° Southwest 441 507 43,000  Level Washington Center
07:38PM 36.6375 -75.8844 201° Southwest 447 514 43,000 -60 Level Washington Center
07:39PM 36.5311 -75.9408 203° Southwest 437 503 42,900  Descending Washington Center
07:40PM 36.4203 -75.9972 202° Southwest 432 497 43,000  Climbing Washington Center
07:41PM 36.3158 -76.0508 202° Southwest 426 490 43,000  Level Washington Center
07:42PM 36.2069 -76.1042 202° Southwest 426 490 43,000  Level Washington Center
07:43PM 36.1025 -76.1575 202° Southwest 420 483 43,000  Level Washington Center
07:44PM 35.9917 -76.2108 201° Southwest 420 483 43,000  Level Washington Center
07:45PM 35.8850 -76.2636 202° Southwest 415 478 43,000 -60 Level Washington Center
07:46PM 35.7761 -76.3167 202° Southwest 415 478 42,900  Descending Washington Center
07:47PM 35.6694 -76.3667 201° Southwest 415 478 43,000  Climbing Washington Center
07:48PM 35.5606 -76.4194 202° Southwest 415 478 43,000  Level Washington Center
07:49PM 35.4539 -76.4717 202° Southwest 415 478 43,000  Level Washington Center
07:50PM 35.3364 -76.5342 203° Southwest 415 478 43,000  Level Washington Center
07:51PM 35.2275 -76.5864 201° Southwest 415 478 43,000  Level Washington Center
07:52PM 35.1186 -76.6408 202° Southwest 415 478 43,000  Level Washington Center
07:53PM 35.0200 -76.6903 202° Southwest 415 478 43,000  Level Washington Center
07:54PM 34.9111 -76.7419 201° Southwest 415 478 43,000  Level Washington Center
07:55PM 34.8022 -76.7936 201° Southwest 415 478 43,000  Level Washington Center
07:56PM 34.6931 -76.8450 201° Southwest 420 483 43,000  Level Washington Center
07:57PM 34.5883 -76.8964 202° Southwest 415 478 43,000  Level Washington Center
07:58PM 34.4814 -76.9450 201° Southwest 415 478 43,000  Level Washington Center
07:59PM 34.3786 -76.9961 202° Southwest 415 478 43,000  Level Washington Center
08:00PM 34.2714 -77.0447 201° Southwest 415 478 43,000  Level Washington Center
08:03PM 33.9047 -77.2156 201° Southwest 429 494 43,000  Level Jacksonville Center
08:04PM 33.7986 -77.2672 202° Southwest 429 494 43,000  Level Jacksonville Center
08:05PM 33.6903 -77.3167 201° Southwest 423 487 43,000  Level Jacksonville Center
08:06PM 33.5839 -77.3681 202° Southwest 423 487 43,000  Level Jacksonville Center
08:07PM 33.4736 -77.4175 201° Southwest 423 487 43,000  Level Jacksonville Center
08:08PM 33.3672 -77.4686 202° Southwest 423 487 43,000  Level Jacksonville Center
08:09PM 33.2567 -77.5178 200° South 428 493 43,000 -60 Level Jacksonville Center
08:10PM 33.1400 -77.5742 202° Southwest 423 487 42,900  Descending Jacksonville Center
08:11PM 33.0336 -77.6228 201° Southwest 423 487 43,000  Climbing Jacksonville Center
08:12PM 32.9228 -77.6689 199° South 428 493 43,000  Level Jacksonville Center
08:13PM 32.8122 -77.7197 201° Southwest 428 493 43,000  Level Jacksonville Center
08:14PM 32.7039 -77.7728 202° Southwest 428 493 43,000 -60 Level Jacksonville Center
08:15PM 32.5931 -77.8186 199° South 428 493 42,900  Descending Jacksonville Center
08:16PM 32.4844 -77.8689 201° Southwest 423 487 43,000  Climbing Jacksonville Center
08:17PM 32.3778 -77.9167 201° Southwest 428 493 42,900  Descending Jacksonville Center
08:18PM 32.2711 -77.9642 201° Southwest 423 487 43,000  Climbing Jacksonville Center
08:19PM 32.1644 -78.0117 201° Southwest 423 487 43,000 240 Level Jacksonville Center
08:20PM 32.0556 -78.0614 201° Southwest 423 487 43,500 600 Climbing Jacksonville Center
08:21PM 31.9508 -78.1086 201° Southwest 417 480 44,300 720 Climbing Jacksonville Center
08:22PM 31.8483 -78.1531 200° South 412 474 45,000 300 Climbing Jacksonville Center
08:23PM 31.7456 -78.2000 201° Southwest 406 467 45,000 -60 Level Jacksonville Center
08:24PM 31.6389 -78.2517 202° Southwest 406 467 44,900  Descending Jacksonville Center
08:25PM 31.5458 -78.3269 215° Southwest 406 467 45,000  Climbing Jacksonville Center
08:26PM 31.4500 -78.3972 212° Southwest 411 473 44,900  Descending Jacksonville Center
08:27PM 31.3428 -78.4317 195° South 411 473 45,000  Climbing Jacksonville Center
08:28PM 31.2289 -78.4614 193° South 411 473 45,000  Level Jacksonville Center
08:29PM 31.1111 -78.4889 191° South 424 488 45,000  Level Jacksonville Center
08:30PM 30.9925 -78.5064 187° South 430 495 45,000  Level Jacksonville Center
08:31PM 30.8744 -78.5314 190° South 437 503 45,000  Level Jacksonville Center
08:33PM 30.6639 -78.5744 190° South 435 501 45,000  Level Miami Center
08:34PM 30.5428 -78.5967 189° South 435 501 45,000  Level Miami Center
08:35PM 30.4258 -78.6211 190° South 434 499 45,000  Level Miami Center
08:36PM 30.3047 -78.6456 190° South 442 509 45,000  Level Miami Center
08:37PM 30.1811 -78.6769 192° South 442 509 45,000  Level Miami Center
08:38PM 30.0642 -78.7039 191° South 442 509 45,000  Level Miami Center
08:39PM 29.9364 -78.7447 195° South 442 509 45,000  Level Miami Center
08:40PM 29.8172 -78.7714 191° South 436 502 45,000  Level Miami Center
08:41PM 29.6958 -78.8003 192° South 436 502 45,000  Level Miami Center
08:42PM 29.5767 -78.8292 192° South 436 502 45,000  Level Miami Center
08:43PM 29.4636 -78.8581 193° South 437 503 45,000  Level Miami Center
08:44PM 29.3403 -78.8819 190° South 432 497 45,000  Level Miami Center
08:45PM 29.2250 -78.9156 194° South 434 499 45,000  Level Miami Center
08:46PM 29.1056 -78.9442 192° South 434 499 45,000  Level Miami Center
08:47PM 28.9864 -78.9706 191° South 434 499 45,000  Level Miami Center
08:48PM 28.8669 -78.9989 192° South 434 499 45,000 -240 Level Miami Center
08:49PM 28.7517 -79.0253 191° South 429 494 44,600 -600 Descending Miami Center
08:50PM 28.6325 -79.0536 192° South 434 499 43,800 -840 Descending Miami Center
08:51PM 28.5172 -79.0797 191° South 434 499 43,000 -840 Descending Miami Center
08:52PM 28.4000 -79.1081 192° South 434 499 42,200 -840 Descending Miami Center
08:53PM 28.2847 -79.1342 191° South 434 499 41,400 -840 Descending Miami Center
08:54PM 28.1714 -79.1625 192° South 429 494 40,600 -1,200 Descending Miami Center
08:55PM 28.0561 -79.1906 192° South 429 494 39,000 -1,740 Descending Miami Center
08:56PM 27.9431 -79.2167 192° South 424 488 37,200 -1,800 Descending Miami Center
08:57PM 27.8403 -79.2403 191° South 419 482 35,400 -1,800 Descending Miami Center
08:58PM 27.7250 -79.2661 191° South 424 488 33,700 -1,860 Descending Miami Center
08:59PM 27.5931 -79.2983 192° South 442 509 31,700 -1,920 Descending Miami Center
09:00PM 27.4736 -79.3264 192° South 442 509 29,900 -1,800 Descending Miami Center
09:01PM 27.3500 -79.3542 191° South 448 516 28,100 -2,100 Descending Miami Center
09:02PM 27.2431 -79.3797 192° South 444 511 25,800 -2,100 Descending Miami Center
09:03PM 27.1233 -79.4097 193° South 439 505 24,000 -900 Descending Miami Center
09:04PM 27.0017 -79.4444 194° South 420 483 24,000 -780 Level Miami Center
09:05PM 26.8944 -79.4794 196° South 414 476 22,500 -1,680 Descending Miami Center
09:06PM 26.7811 -79.5094 193° South 419 482 20,700 -1,740 Descending Miami Center
09:07PM 26.6719 -79.5442 196° South 413 475 19,100 -1,740 Descending Miami Center
09:08PM 26.5750 -79.5953 205° Southwest 401 461 17,300 -1,800 Descending Miami Center
09:09PM 26.5389 -79.6200 211° Southwest 391 450 16,700 -2,520 Descending Miami Center
09:09PM 26.5044 -79.6681 231° Southwest 360 414 15,200 -2,460 Descending Miami Center
09:10PM 26.4550 -79.7481 235° Southwest 303 349 13,000 -1,320 Descending Miami Center
09:11PM 26.4117 -79.8258 238° Southwest 277 319 12,600 -960 Descending Miami Center
09:12PM 26.3458 -79.8775 215° Southwest 280 322 11,000 -780 Descending Miami Center
09:13PM 26.2719 -79.9106 202° Southwest 285 328 11,000 -540 Level Miami Center
09:14PM 26.2067 -79.9411 203° Southwest 286 329 10,000 -960 Descending Miami Center
09:15PM 26.1267 -79.9714 199° South 280 322 9,200 -1,260 Descending Miami Center
09:16PM 26.0592 -79.9997 201° Southwest 290 334 7,500 -1,920 Descending Miami Center
09:17PM 25.9747 -80.0344 200° South 276 318 5,200 -1,980 Descending Miami Center
09:18PM 25.9200 -80.0561 200° South 285 328 3,600 -1,140 Descending Miami Center
09:19PM 25.8464 -80.0867 200° South 204 235 3,000 -660 Descending Miami Center
09:20PM 25.8075 -80.1364 229° Southwest 203 234 2,200 -780 Descending Miami Center
09:22PM 25.8042 -80.1892 266° West 162 186 1,400 -780 Descending Miami Center
09:23PM 25.8033 -80.2353 269° West 131 151 700 -660 Descending Miami Center
09:24PM 25.8003 -80.2769 265° West 128 147 100 -600 Descending Miami Center
09:26PM 25.7954 -80.2901 274° West  Level Estimated